createdAt,value
2019-02-23T00:02:01.697Z,48.65
2019-02-23T00:07:05.550Z,48.83
2019-02-23T00:12:09.383Z,49.14
2019-02-23T00:17:13.212Z,48.99
2019-02-23T00:22:17.125Z,48.91
2019-02-23T00:27:20.969Z,49.20
2019-02-23T00:32:24.850Z,49.13
2019-02-23T00:37:28.699Z,49.32
2019-02-23T00:42:32.528Z,49.40
2019-02-23T00:47:36.400Z,49.27
2019-02-23T00:52:40.283Z,49.50
2019-02-23T00:57:44.141Z,49.57
2019-02-23T01:02:48.046Z,49.57
2019-02-23T01:07:51.903Z,49.37
2019-02-23T01:12:55.772Z,49.39
2019-02-23T01:17:59.693Z,49.35
2019-02-23T01:23:03.530Z,49.29
2019-02-23T01:28:07.355Z,49.32
2019-02-23T01:33:11.279Z,49.32
2019-02-23T01:38:15.194Z,49.59
2019-02-23T01:43:19.117Z,50.01
2019-02-23T01:48:22.931Z,49.97
2019-02-23T01:53:26.739Z,49.77
2019-02-23T01:58:30.581Z,49.84
2019-02-23T02:03:34.443Z,49.59
2019-02-23T02:08:38.272Z,49.87
2019-02-23T02:13:42.139Z,49.87
2019-02-23T02:18:45.970Z,50.06
2019-02-23T02:23:49.883Z,50.16
2019-02-23T02:28:53.694Z,49.39
2019-02-23T02:34:25.865Z,50.20
2019-02-23T02:39:29.693Z,49.98
2019-02-23T02:44:33.445Z,50.34
2019-02-23T02:49:37.314Z,50.09
2019-02-23T02:54:41.143Z,50.09
2019-02-23T02:59:44.951Z,49.98
2019-02-23T03:04:48.835Z,49.98
2019-02-23T03:09:52.718Z,50.38
2019-02-23T03:14:56.689Z,49.96
2019-02-23T03:20:00.556Z,49.96
2019-02-23T03:25:04.495Z,50.36
2019-02-23T03:30:09.886Z,50.36
2019-02-23T03:35:13.666Z,50.18
2019-02-23T03:40:17.474Z,49.93
2019-02-23T03:45:21.281Z,50.11
2019-02-23T03:50:25.132Z,50.10
2019-02-23T03:55:28.942Z,50.10
2019-02-23T04:00:32.775Z,50.15
2019-02-23T04:05:36.562Z,50.43
2019-02-23T04:10:40.422Z,50.43
2019-02-23T04:15:44.239Z,51.07
2019-02-23T04:20:48.026Z,50.21
2019-02-23T04:25:51.814Z,50.21
2019-02-23T04:30:55.686Z,50.60
2019-02-23T04:35:59.499Z,50.75
2019-02-23T04:41:03.436Z,50.45
2019-02-23T04:46:07.315Z,50.45
2019-02-23T04:51:14.251Z,50.66
2019-02-23T04:56:16.641Z,50.65
2019-02-23T05:01:20.431Z,50.77
2019-02-23T05:06:24.216Z,50.75
2019-02-23T05:11:27.983Z,51.05
2019-02-23T05:16:31.771Z,50.94
2019-02-23T05:21:35.672Z,50.94
2019-02-23T05:26:39.456Z,50.93
2019-02-23T05:31:43.398Z,50.98
2019-02-23T05:36:47.208Z,50.94
2019-02-23T05:41:51.091Z,50.79
2019-02-23T05:46:54.972Z,50.79
2019-02-23T05:51:58.784Z,51.14
2019-02-23T05:57:02.781Z,51.14
2019-02-23T06:02:06.641Z,51.13
2019-02-23T06:07:12.564Z,51.13
2019-02-23T06:12:16.442Z,50.84
2019-02-23T06:17:20.225Z,50.84
2019-02-23T06:22:24.084Z,51.19
2019-02-23T06:27:27.876Z,51.19
2019-02-23T06:32:31.728Z,51.53
2019-02-23T06:37:35.506Z,51.01
2019-02-23T06:42:39.321Z,51.01
2019-02-23T06:47:43.096Z,51.42
2019-02-23T06:52:46.923Z,51.42
2019-02-23T06:57:50.700Z,51.59
2019-02-23T07:02:54.470Z,51.65
2019-02-23T07:07:58.264Z,51.37
2019-02-23T07:13:02.119Z,51.53
2019-02-23T07:18:05.895Z,51.11
2019-02-23T07:23:09.758Z,51.11
2019-02-23T07:28:13.587Z,51.75
2019-02-23T07:33:29.532Z,51.13
2019-02-23T07:38:23.074Z,51.70
2019-02-23T07:43:26.851Z,51.03
2019-02-23T07:48:30.838Z,51.03
2019-02-23T07:53:34.635Z,51.56
2019-02-23T07:58:38.421Z,34.39
2019-02-23T08:03:42.201Z,34.77
2019-02-23T08:08:45.983Z,33.25
2019-02-23T08:13:49.845Z,33.49
2019-02-23T08:18:53.661Z,34.62
2019-02-23T08:23:57.517Z,35.52
2019-02-23T08:29:01.412Z,37.38
2019-02-23T08:34:05.267Z,38.77
2019-02-23T08:39:09.108Z,38.77
2019-02-23T08:44:12.925Z,39.00
2019-02-23T08:49:16.704Z,40.50
2019-02-23T08:54:20.478Z,40.52
2019-02-23T08:59:24.321Z,40.52
2019-02-23T09:04:28.182Z,41.81
2019-02-23T09:09:31.992Z,41.81
2019-02-23T09:14:35.783Z,42.35
2019-02-23T09:19:39.656Z,43.16
2019-02-23T09:24:43.464Z,43.16
2019-02-23T09:29:47.261Z,43.51
2019-02-23T09:34:51.083Z,43.51
2019-02-23T09:39:54.911Z,43.95
2019-02-23T09:44:58.868Z,44.13
2019-02-23T09:50:02.666Z,44.05
2019-02-23T09:55:06.571Z,44.05
2019-02-23T10:00:10.447Z,44.28
2019-02-23T10:05:14.360Z,44.39
2019-02-23T10:10:18.216Z,44.72
2019-02-23T10:15:22.005Z,44.82
2019-02-23T10:20:25.929Z,44.82
2019-02-23T10:25:29.714Z,45.21
2019-02-23T10:30:33.502Z,45.21
2019-02-23T10:35:37.344Z,45.61
2019-02-23T10:40:41.132Z,45.52
2019-02-23T10:45:45.046Z,46.09
2019-02-23T10:50:49.110Z,46.09
2019-02-23T10:55:53.003Z,46.03
2019-02-23T11:00:56.880Z,46.66
2019-02-23T11:06:00.666Z,46.66
2019-02-23T11:11:04.456Z,46.21
2019-02-23T11:16:08.578Z,46.01
2019-02-23T11:21:12.381Z,46.64
2019-02-23T11:26:16.230Z,47.21
2019-02-23T11:31:20.114Z,46.87
2019-02-23T11:36:24.412Z,46.92
2019-02-23T11:41:28.216Z,47.43
2019-02-23T11:46:31.981Z,47.43
2019-02-23T11:51:35.959Z,46.97
2019-02-23T11:56:39.834Z,47.50
2019-02-23T12:01:43.665Z,46.83
2019-02-23T12:06:47.530Z,46.83
2019-02-23T12:11:51.401Z,47.02
2019-02-23T12:16:55.175Z,47.08
2019-02-23T12:21:58.989Z,47.29
2019-02-23T12:27:02.786Z,46.93
2019-02-23T12:32:06.591Z,46.93
2019-02-23T12:37:10.368Z,46.64
2019-02-23T12:42:14.153Z,46.46
2019-02-23T12:47:18.555Z,46.46
2019-02-23T12:52:22.322Z,46.78
2019-02-23T12:57:26.192Z,46.76
2019-02-23T13:02:30.047Z,46.72
2019-02-23T13:07:33.878Z,46.30
2019-02-23T13:13:06.935Z,46.30
2019-02-23T13:19:04.963Z,46.49
2019-02-23T13:24:34.162Z,46.64
2019-02-23T13:30:20.991Z,46.71
2019-02-23T13:35:53.243Z,46.72
2019-02-23T13:41:29.596Z,46.47
2019-02-23T13:46:50.795Z,47.05
2019-02-23T13:52:32.835Z,47.05
2019-02-23T13:58:19.678Z,47.23
2019-02-23T14:03:38.017Z,47.42
2019-02-23T14:09:25.869Z,47.35
2019-02-23T14:15:14.262Z,47.30
2019-02-23T14:20:38.331Z,47.46
2019-02-23T14:26:18.194Z,47.33
2019-02-23T14:31:44.541Z,47.33
2019-02-23T14:37:14.979Z,48.11
2019-02-23T14:43:03.212Z,47.63
2019-02-23T14:48:59.781Z,47.63
2019-02-23T14:55:00.903Z,47.85
2019-02-23T15:00:28.380Z,47.85
2019-02-23T15:05:52.571Z,47.67
2019-02-23T15:11:16.848Z,48.07
2019-02-23T15:16:50.270Z,47.98
2019-02-23T15:22:30.757Z,47.55
2019-02-23T15:27:59.907Z,47.91
2019-02-23T15:33:39.854Z,47.92
2019-02-23T15:39:19.275Z,47.58
2019-02-23T15:45:19.629Z,48.40
2019-02-23T15:50:23.377Z,48.40
2019-02-23T15:55:29.869Z,48.13
2019-02-23T16:00:35.035Z,48.39
2019-02-23T16:05:38.146Z,48.66
2019-02-23T16:10:41.943Z,47.91
2019-02-23T16:15:45.808Z,47.85
2019-02-23T16:20:49.700Z,47.74
2019-02-23T16:25:53.522Z,46.62
2019-02-23T16:30:57.364Z,47.57
2019-02-23T16:36:01.204Z,46.12
2019-02-23T16:41:04.996Z,46.12
2019-02-23T16:46:08.839Z,47.94
2019-02-23T16:51:12.733Z,49.27
2019-02-23T16:56:16.517Z,49.27
2019-02-23T17:01:20.491Z,48.45
2019-02-23T17:06:24.301Z,49.09
2019-02-23T17:11:28.132Z,48.61
2019-02-23T17:16:31.984Z,48.61
2019-02-23T17:21:35.772Z,46.69
2019-02-23T17:26:39.546Z,46.90
2019-02-23T17:31:43.357Z,47.17
2019-02-23T17:36:47.137Z,46.23
2019-02-23T17:41:50.943Z,46.86
2019-02-23T17:46:54.898Z,45.94
2019-02-23T17:51:58.759Z,46.15
2019-02-23T17:57:02.543Z,46.44
2019-02-23T18:02:06.468Z,46.44
2019-02-23T18:07:10.248Z,44.49
2019-02-23T18:12:14.067Z,44.75
2019-02-23T18:17:17.880Z,44.75
2019-02-23T18:22:21.676Z,45.06
2019-02-23T18:27:25.451Z,45.55
2019-02-23T18:32:29.301Z,45.55
2019-02-23T18:37:33.090Z,45.52
2019-02-23T18:42:36.957Z,46.02
2019-02-23T18:47:40.754Z,45.73
2019-02-23T18:52:44.551Z,46.07
2019-02-23T18:57:48.360Z,44.88
2019-02-23T19:02:52.132Z,44.61
2019-02-23T19:07:55.930Z,44.17
2019-02-23T19:12:59.702Z,44.16
2019-02-23T19:18:03.552Z,44.79
2019-02-23T19:23:08.204Z,44.79
2019-02-23T19:28:11.982Z,44.55
2019-02-23T19:33:15.761Z,44.70
2019-02-23T19:38:19.543Z,45.70
2019-02-23T19:43:23.323Z,44.91
2019-02-23T19:48:27.265Z,44.73
2019-02-23T19:53:31.186Z,43.65
2019-02-23T19:58:34.979Z,43.65
2019-02-23T20:03:38.792Z,43.92
2019-02-23T20:08:42.667Z,43.92
2019-02-23T20:13:46.462Z,44.19
2019-02-23T20:18:50.259Z,44.93
2019-02-23T20:23:54.123Z,44.85
2019-02-23T20:28:57.951Z,44.81
2019-02-23T20:34:01.785Z,44.11
2019-02-23T20:39:05.837Z,42.92
2019-02-23T20:44:09.665Z,43.28
2019-02-23T20:49:13.502Z,42.74
2019-02-23T20:54:17.380Z,43.60
2019-02-23T20:59:21.213Z,44.84
2019-02-23T21:04:25.106Z,45.01
2019-02-23T21:09:28.973Z,45.01
2019-02-23T21:14:32.745Z,45.87
2019-02-23T21:19:36.636Z,45.62
2019-02-23T21:24:41.743Z,46.43
2019-02-23T21:29:45.621Z,46.06
2019-02-23T21:34:49.431Z,46.06
2019-02-23T21:39:53.255Z,47.09
2019-02-23T21:44:57.963Z,46.53
2019-02-23T21:50:02.001Z,47.26
2019-02-23T21:55:06.412Z,47.26
2019-02-23T22:00:10.226Z,47.03
2019-02-23T22:05:14.102Z,47.03
2019-02-23T22:10:17.938Z,47.17
2019-02-23T22:15:21.825Z,47.08
2019-02-23T22:20:27.769Z,47.08
2019-02-23T22:25:31.556Z,47.58
2019-02-23T22:30:35.468Z,47.58
2019-02-23T22:35:39.323Z,47.76
2019-02-23T22:40:43.202Z,47.76
2019-02-23T22:45:46.986Z,47.38
2019-02-23T22:50:50.893Z,47.71
2019-02-23T22:55:54.688Z,47.71
2019-02-23T23:01:07.202Z,47.66
2019-02-23T23:06:11.010Z,47.93
2019-02-23T23:11:14.869Z,47.39
2019-02-23T23:16:18.775Z,47.50
2019-02-23T23:21:22.689Z,48.05
2019-02-23T23:26:26.607Z,48.34
2019-02-23T23:31:30.382Z,48.35
2019-02-23T23:36:34.256Z,48.35
2019-02-23T23:41:38.067Z,48.44
2019-02-23T23:46:42.009Z,48.39
2019-02-23T23:51:45.922Z,47.98
2019-02-23T23:56:49.729Z,48.43
